sensor_id;sensor_type;location;lat;lon;timestamp;pressure;altitude;pressure_sealevel;temperature;humidity
20889;BME280;10604;51.976;7.594;2022-09-25T00:01:28;100648.25;;;30.84;32.96
20889;BME280;10604;51.976;7.594;2022-09-25T00:03:54;100642.19;;;30.27;33.10
20889;BME280;10604;51.976;7.594;2022-09-25T00:06:21;100644.09;;;30.65;32.63
20889;BME280;10604;51.976;7.594;2022-09-25T00:08:47;100647.69;;;31.20;32.15
20889;BME280;10604;51.976;7.594;2022-09-25T00:11:18;100646.84;;;31.42;31.33
20889;BME280;10604;51.976;7.594;2022-09-25T00:13:44;100645.97;;;31.41;31.84
20889;BME280;10604;51.976;7.594;2022-09-25T00:16:15;100649.38;;;31.43;31.78
20889;BME280;10604;51.976;7.594;2022-09-25T00:18:41;100654.78;;;30.98;32.35
20889;BME280;10604;51.976;7.594;2022-09-25T00:21:25;100643.13;;;30.58;32.96
20889;BME280;10604;51.976;7.594;2022-09-25T00:23:58;100639.00;;;31.24;31.91
20889;BME280;10604;51.976;7.594;2022-09-25T00:26:26;100646.44;;;31.07;32.06
20889;BME280;10604;51.976;7.594;2022-09-25T00:28:53;100639.22;;;29.16;34.70
20889;BME280;10604;51.976;7.594;2022-09-25T00:31:20;100642.19;;;29.47;34.66
20889;BME280;10604;51.976;7.594;2022-09-25T00:33:50;100639.56;;;29.94;33.81
20889;BME280;10604;51.976;7.594;2022-09-25T00:36:15;100637.56;;;29.64;34.17
20889;BME280;10604;51.976;7.594;2022-09-25T00:38:41;100637.88;;;29.29;34.62
20889;BME280;10604;51.976;7.594;2022-09-25T00:45:02;100639.84;;;30.24;33.27
20889;BME280;10604;51.976;7.594;2022-09-25T00:47:43;100649.97;;;30.46;32.85
20889;BME280;10604;51.976;7.594;2022-09-25T00:50:29;100640.97;;;30.38;33.07
20889;BME280;10604;51.976;7.594;2022-09-25T00:53:04;100645.88;;;29.95;33.38
20889;BME280;10604;51.976;7.594;2022-09-25T00:55:32;100648.50;;;30.74;32.51
20889;BME280;10604;51.976;7.594;2022-09-25T00:57:58;100648.88;;;31.25;31.47
20889;BME280;10604;51.976;7.594;2022-09-25T01:00:26;100655.31;;;31.01;31.87
20889;BME280;10604;51.976;7.594;2022-09-25T01:02:53;100652.41;;;31.03;32.04
20889;BME280;10604;51.976;7.594;2022-09-25T01:05:26;100651.84;;;30.77;31.95
20889;BME280;10604;51.976;7.594;2022-09-25T01:07:52;100659.28;;;30.91;31.91
20889;BME280;10604;51.976;7.594;2022-09-25T01:10:21;100658.97;;;30.86;31.82
20889;BME280;10604;51.976;7.594;2022-09-25T01:12:48;100659.59;;;30.65;31.80
20889;BME280;10604;51.976;7.594;2022-09-25T01:15:17;100659.47;;;30.58;32.15
20889;BME280;10604;51.976;7.594;2022-09-25T01:20:31;100661.41;;;30.81;31.80
20889;BME280;10604;51.976;7.594;2022-09-25T01:23:05;100659.06;;;30.22;32.54
20889;BME280;10604;51.976;7.594;2022-09-25T01:25:55;100650.69;;;30.40;32.25
20889;BME280;10604;51.976;7.594;2022-09-25T01:31:01;100651.81;;;29.98;32.65
20889;BME280;10604;51.976;7.594;2022-09-25T01:33:40;100652.97;;;30.67;31.78
20889;BME280;10604;51.976;7.594;2022-09-25T01:36:14;100654.91;;;30.82;31.59
20889;BME280;10604;51.976;7.594;2022-09-25T01:38:49;100651.91;;;30.21;32.43
20889;BME280;10604;51.976;7.594;2022-09-25T01:41:40;100652.69;;;30.54;31.89
20889;BME280;10604;51.976;7.594;2022-09-25T01:44:13;100653.31;;;30.64;31.43
20889;BME280;10604;51.976;7.594;2022-09-25T01:46:46;100649.63;;;30.41;31.70
20889;BME280;10604;51.976;7.594;2022-09-25T01:49:25;100647.69;;;30.97;31.34
20889;BME280;10604;51.976;7.594;2022-09-25T01:51:53;100647.38;;;30.61;32.08
20889;BME280;10604;51.976;7.594;2022-09-25T01:54:42;100646.31;;;30.93;31.33
20889;BME280;10604;51.976;7.594;2022-09-25T01:57:22;100650.00;;;30.38;32.02
20889;BME280;10604;51.976;7.594;2022-09-25T01:59:58;100644.16;;;30.49;31.63
20889;BME280;10604;51.976;7.594;2022-09-25T02:02:29;100643.22;;;31.27;30.56
20889;BME280;10604;51.976;7.594;2022-09-25T02:05:18;100647.72;;;30.89;30.85
20889;BME280;10604;51.976;7.594;2022-09-25T02:07:48;100646.56;;;30.44;31.50
20889;BME280;10604;51.976;7.594;2022-09-25T02:10:21;100655.09;;;31.11;31.12
20889;BME280;10604;51.976;7.594;2022-09-25T02:12:52;100652.34;;;30.41;31.91
20889;BME280;10604;51.976;7.594;2022-09-25T02:15:27;100646.31;;;30.15;31.80
20889;BME280;10604;51.976;7.594;2022-09-25T02:17:59;100644.06;;;30.73;31.68
20889;BME280;10604;51.976;7.594;2022-09-25T02:20:48;100648.56;;;30.58;31.19
20889;BME280;10604;51.976;7.594;2022-09-25T02:23:31;100654.91;;;30.82;31.35
20889;BME280;10604;51.976;7.594;2022-09-25T02:26:05;100650.59;;;30.56;31.34
20889;BME280;10604;51.976;7.594;2022-09-25T02:28:31;100656.91;;;30.57;31.14
20889;BME280;10604;51.976;7.594;2022-09-25T02:30:58;100658.13;;;29.50;32.41
20889;BME280;10604;51.976;7.594;2022-09-25T02:33:25;100662.09;;;30.27;31.54
20889;BME280;10604;51.976;7.594;2022-09-25T02:35:51;100663.69;;;30.69;31.07
20889;BME280;10604;51.976;7.594;2022-09-25T02:38:17;100665.94;;;30.57;31.29
20889;BME280;10604;51.976;7.594;2022-09-25T02:40:53;100670.75;;;30.78;30.88
20889;BME280;10604;51.976;7.594;2022-09-25T02:44:02;100666.31;;;30.38;31.22
20889;BME280;10604;51.976;7.594;2022-09-25T02:46:41;100669.44;;;30.74;30.69
20889;BME280;10604;51.976;7.594;2022-09-25T02:49:28;100665.22;;;30.16;31.35
20889;BME280;10604;51.976;7.594;2022-09-25T02:52:11;100664.38;;;30.00;31.65
20889;BME280;10604;51.976;7.594;2022-09-25T02:57:52;100661.69;;;29.59;31.86
20889;BME280;10604;51.976;7.594;2022-09-25T03:00:18;100664.41;;;29.83;31.65
20889;BME280;10604;51.976;7.594;2022-09-25T03:02:47;100665.91;;;29.78;32.09
20889;BME280;10604;51.976;7.594;2022-09-25T03:05:14;100661.84;;;29.82;31.86
20889;BME280;10604;51.976;7.594;2022-09-25T03:07:40;100664.41;;;29.83;31.68
20889;BME280;10604;51.976;7.594;2022-09-25T03:10:27;100662.03;;;29.72;31.78
20889;BME280;10604;51.976;7.594;2022-09-25T03:12:53;100661.28;;;29.13;32.50
20889;BME280;10604;51.976;7.594;2022-09-25T03:15:18;100661.69;;;29.43;32.04
20889;BME280;10604;51.976;7.594;2022-09-25T03:17:47;100664.41;;;29.51;31.96
20889;BME280;10604;51.976;7.594;2022-09-25T03:20:15;100661.00;;;29.57;31.91
20889;BME280;10604;51.976;7.594;2022-09-25T03:22:40;100663.72;;;29.73;31.92
20889;BME280;10604;51.976;7.594;2022-09-25T03:25:06;100664.59;;;29.57;32.02
20889;BME280;10604;51.976;7.594;2022-09-25T03:27:32;100662.03;;;29.96;31.55
20889;BME280;10604;51.976;7.594;2022-09-25T03:29:57;100663.72;;;29.57;32.22
20889;BME280;10604;51.976;7.594;2022-09-25T03:32:23;100663.56;;;29.67;31.96
20889;BME280;10604;51.976;7.594;2022-09-25T03:34:48;100658.97;;;29.67;31.99
20889;BME280;10604;51.976;7.594;2022-09-25T03:37:14;100647.75;;;29.94;31.76
20889;BME280;10604;51.976;7.594;2022-09-25T03:39:39;100651.16;;;29.64;32.15
20889;BME280;10604;51.976;7.594;2022-09-25T03:42:05;100653.53;;;29.67;32.00
20889;BME280;10604;51.976;7.594;2022-09-25T03:44:30;100646.03;;;29.85;31.69
20889;BME280;10604;51.976;7.594;2022-09-25T03:46:55;100644.69;;;29.98;31.23
20889;BME280;10604;51.976;7.594;2022-09-25T03:49:21;100646.03;;;29.77;31.62
20889;BME280;10604;51.976;7.594;2022-09-25T03:51:46;100640.09;;;29.66;32.02
20889;BME280;10604;51.976;7.594;2022-09-25T03:54:12;100636.91;;;29.54;31.92
20889;BME280;10604;51.976;7.594;2022-09-25T03:56:37;100635.53;;;29.50;32.15
20889;BME280;10604;51.976;7.594;2022-09-25T03:59:06;100624.31;;;29.69;31.50
20889;BME280;10604;51.976;7.594;2022-09-25T04:01:31;100634.88;;;29.40;31.94
20889;BME280;10604;51.976;7.594;2022-09-25T04:03:57;100635.88;;;29.39;32.01
20889;BME280;10604;51.976;7.594;2022-09-25T04:06:25;100639.63;;;29.62;31.84
20889;BME280;10604;51.976;7.594;2022-09-25T04:08:51;100636.91;;;29.62;31.99
20889;BME280;10604;51.976;7.594;2022-09-25T04:11:20;100631.75;;;29.83;31.55
20889;BME280;10604;51.976;7.594;2022-09-25T04:13:46;100634.19;;;29.54;31.80
20889;BME280;10604;51.976;7.594;2022-09-25T04:16:13;100634.50;;;29.59;31.51
20889;BME280;10604;51.976;7.594;2022-09-25T04:18:40;100632.81;;;29.58;31.89
20889;BME280;10604;51.976;7.594;2022-09-25T04:21:08;100641.66;;;29.44;31.93
20889;BME280;10604;51.976;7.594;2022-09-25T04:23:35;100630.38;;;29.79;31.65
20889;BME280;10604;51.976;7.594;2022-09-25T04:26:00;100635.19;;;29.69;31.66
20889;BME280;10604;51.976;7.594;2022-09-25T04:28:26;100637.22;;;29.35;32.22
20889;BME280;10604;51.976;7.594;2022-09-25T04:30:52;100635.47;;;29.98;31.43
20889;BME280;10604;51.976;7.594;2022-09-25T04:33:17;100635.88;;;29.55;31.52
20889;BME280;10604;51.976;7.594;2022-09-25T04:36:02;100638.94;;;29.44;31.98
20889;BME280;10604;51.976;7.594;2022-09-25T04:38:28;100635.19;;;29.37;31.87
20889;BME280;10604;51.976;7.594;2022-09-25T04:40:57;100631.47;;;29.38;32.24
20889;BME280;10604;51.976;7.594;2022-09-25T04:43:24;100640.97;;;29.50;31.54
20889;BME280;10604;51.976;7.594;2022-09-25T04:45:50;100629.06;;;29.75;31.46
20889;BME280;10604;51.976;7.594;2022-09-25T04:48:16;100631.78;;;29.18;31.82
20889;BME280;10604;51.976;7.594;2022-09-25T04:50:46;100634.13;;;29.30;32.09
20889;BME280;10604;51.976;7.594;2022-09-25T04:53:12;100634.19;;;29.62;31.22
20889;BME280;10604;51.976;7.594;2022-09-25T04:55:37;100633.78;;;29.16;32.07
20889;BME280;10604;51.976;7.594;2022-09-25T04:58:03;100627.50;;;29.16;32.04
20889;BME280;10604;51.976;7.594;2022-09-25T05:00:31;100638.94;;;29.44;31.70
20889;BME280;10604;51.976;7.594;2022-09-25T05:02:57;100635.53;;;29.66;31.36
20889;BME280;10604;51.976;7.594;2022-09-25T05:05:23;100637.38;;;29.25;31.73
20889;BME280;10604;51.976;7.594;2022-09-25T05:07:57;100639.94;;;29.27;31.82
20889;BME280;10604;51.976;7.594;2022-09-25T05:10:24;100644.13;;;28.97;31.59
20889;BME280;10604;51.976;7.594;2022-09-25T05:12:55;100643.28;;;28.88;32.07
20889;BME280;10604;51.976;7.594;2022-09-25T05:15:21;100644.63;;;28.84;32.07
20889;BME280;10604;51.976;7.594;2022-09-25T05:17:47;100638.91;;;29.11;31.50
20889;BME280;10604;51.976;7.594;2022-09-25T05:20:13;100637.84;;;28.96;31.59
20889;BME280;10604;51.976;7.594;2022-09-25T05:22:38;100641.59;;;28.95;31.40
20889;BME280;10604;51.976;7.594;2022-09-25T05:25:04;100641.25;;;28.98;31.30
20889;BME280;10604;51.976;7.594;2022-09-25T05:27:32;100645.16;;;29.04;31.29
20889;BME280;10604;51.976;7.594;2022-09-25T05:29:58;100639.97;;;28.68;31.99
20889;BME280;10604;51.976;7.594;2022-09-25T05:32:23;100640.75;;;28.53;31.78
20889;BME280;10604;51.976;7.594;2022-09-25T05:34:49;100640.28;;;28.65;31.73
20889;BME280;10604;51.976;7.594;2022-09-25T05:37:14;100640.03;;;28.42;31.96
20889;BME280;10604;51.976;7.594;2022-09-25T05:39:39;100637.69;;;28.48;31.66
20889;BME280;10604;51.976;7.594;2022-09-25T05:42:05;100627.66;;;28.40;31.79
20889;BME280;10604;51.976;7.594;2022-09-25T05:44:30;100632.50;;;28.28;31.91
20889;BME280;10604;51.976;7.594;2022-09-25T05:46:57;100635.25;;;28.36;31.61
20889;BME280;10604;51.976;7.594;2022-09-25T05:49:22;100636.97;;;28.37;31.44
20889;BME280;10604;51.976;7.594;2022-09-25T05:51:47;100639.31;;;28.32;31.85
20889;BME280;10604;51.976;7.594;2022-09-25T05:54:13;100638.44;;;27.98;32.62
20889;BME280;10604;51.976;7.594;2022-09-25T05:56:38;100636.56;;;28.24;32.17
20889;BME280;10604;51.976;7.594;2022-09-25T05:59:04;100634.44;;;28.10;32.13
20889;BME280;10604;51.976;7.594;2022-09-25T06:01:29;100636.88;;;27.95;32.49
20889;BME280;10604;51.976;7.594;2022-09-25T06:03:54;100634.34;;;27.94;32.28
20889;BME280;10604;51.976;7.594;2022-09-25T06:06:20;100636.25;;;28.27;32.32
20889;BME280;10604;51.976;7.594;2022-09-25T06:08:45;100634.75;;;28.07;32.41
20889;BME280;10604;51.976;7.594;2022-09-25T06:11:11;100630.56;;;28.13;32.63
20889;BME280;10604;51.976;7.594;2022-09-25T06:13:37;100635.47;;;27.22;33.80
20889;BME280;10604;51.976;7.594;2022-09-25T06:16:04;100634.31;;;27.07;33.69
20889;BME280;10604;51.976;7.594;2022-09-25T06:18:30;100637.69;;;27.44;33.48
20889;BME280;10604;51.976;7.594;2022-09-25T06:21:02;100639.84;;;26.87;34.67
20889;BME280;10604;51.976;7.594;2022-09-25T06:23:28;100635.75;;;26.83;34.39
20889;BME280;10604;51.976;7.594;2022-09-25T06:25:54;100640.81;;;26.69;35.05
20889;BME280;10604;51.976;7.594;2022-09-25T06:28:23;100647.28;;;26.85;34.57
20889;BME280;10604;51.976;7.594;2022-09-25T06:30:48;100649.50;;;27.00;34.99
20889;BME280;10604;51.976;7.594;2022-09-25T06:33:14;100646.00;;;26.62;35.15
20889;BME280;10604;51.976;7.594;2022-09-25T06:35:43;100649.56;;;26.80;34.57
20889;BME280;10604;51.976;7.594;2022-09-25T06:38:10;100646.84;;;26.90;34.71
20889;BME280;10604;51.976;7.594;2022-09-25T06:40:35;100645.63;;;27.20;34.46
20889;BME280;10604;51.976;7.594;2022-09-25T06:43:05;100645.22;;;27.33;34.33
20889;BME280;10604;51.976;7.594;2022-09-25T06:45:32;100652.13;;;26.92;34.49
20889;BME280;10604;51.976;7.594;2022-09-25T06:48:06;100645.63;;;27.20;33.90
20889;BME280;10604;51.976;7.594;2022-09-25T06:53:08;100654.50;;;26.67;35.28
20889;BME280;10604;51.976;7.594;2022-09-25T06:55:35;100650.69;;;26.60;35.53
20889;BME280;10604;51.976;7.594;2022-09-25T06:58:02;100649.41;;;25.90;35.92
20889;BME280;10604;51.976;7.594;2022-09-25T07:00:29;100654.50;;;26.67;35.48
20889;BME280;10604;51.976;7.594;2022-09-25T07:02:56;100650.25;;;27.10;34.64
20889;BME280;10604;51.976;7.594;2022-09-25T07:05:37;100652.41;;;27.24;34.30
20889;BME280;10604;51.976;7.594;2022-09-25T07:08:02;100646.97;;;26.88;34.71
20889;BME280;10604;51.976;7.594;2022-09-25T07:10:28;100644.06;;;27.35;34.25
20889;BME280;10604;51.976;7.594;2022-09-25T07:12:53;100648.88;;;27.85;33.74
20889;BME280;10604;51.976;7.594;2022-09-25T07:15:19;100646.03;;;27.69;33.76
20889;BME280;10604;51.976;7.594;2022-09-25T07:17:44;100651.63;;;27.49;33.62
20889;BME280;10604;51.976;7.594;2022-09-25T07:20:11;100657.13;;;27.40;33.62
20889;BME280;10604;51.976;7.594;2022-09-25T07:22:40;100659.53;;;27.60;33.84
20889;BME280;10604;51.976;7.594;2022-09-25T07:25:07;100657.75;;;28.21;33.04
20889;BME280;10604;51.976;7.594;2022-09-25T07:27:32;100651.47;;;27.94;33.39
20889;BME280;10604;51.976;7.594;2022-09-25T07:29:58;100656.56;;;28.23;32.85
20889;BME280;10604;51.976;7.594;2022-09-25T07:32:23;100660.50;;;28.29;33.00
20889;BME280;10604;51.976;7.594;2022-09-25T07:34:49;100661.88;;;28.07;33.13
20889;BME280;10604;51.976;7.594;2022-09-25T07:37:15;100661.94;;;27.28;34.19
20889;BME280;10604;51.976;7.594;2022-09-25T07:39:41;100662.81;;;27.72;33.78
20889;BME280;10604;51.976;7.594;2022-09-25T07:42:06;100661.84;;;28.25;32.76
20889;BME280;10604;51.976;7.594;2022-09-25T07:44:32;100663.81;;;27.89;33.67
20889;BME280;10604;51.976;7.594;2022-09-25T07:46:58;100665.13;;;28.36;32.38
20889;BME280;10604;51.976;7.594;2022-09-25T07:49:26;100662.31;;;27.94;33.30
20889;BME280;10604;51.976;7.594;2022-09-25T07:51:53;100658.88;;;27.84;32.68
20889;BME280;10604;51.976;7.594;2022-09-25T07:54:18;100666.09;;;27.76;33.30
20889;BME280;10604;51.976;7.594;2022-09-25T07:56:44;100662.00;;;27.36;33.86
20889;BME280;10604;51.976;7.594;2022-09-25T07:59:09;100664.88;;;27.52;33.95
20889;BME280;10604;51.976;7.594;2022-09-25T08:01:34;100668.25;;;27.72;33.21
20889;BME280;10604;51.976;7.594;2022-09-25T08:04:00;100659.03;;;27.83;32.89
20889;BME280;10604;51.976;7.594;2022-09-25T08:06:25;100664.56;;;27.99;32.92
20889;BME280;10604;51.976;7.594;2022-09-25T08:08:51;100676.31;;;27.64;32.67
20889;BME280;10604;51.976;7.594;2022-09-25T08:11:16;100675.63;;;28.31;32.30
20889;BME280;10604;51.976;7.594;2022-09-25T08:13:43;100679.28;;;29.06;31.12
20889;BME280;10604;51.976;7.594;2022-09-25T08:16:14;100674.72;;;29.15;31.74
20889;BME280;10604;51.976;7.594;2022-09-25T08:18:40;100668.66;;;27.77;32.75
20889;BME280;10604;51.976;7.594;2022-09-25T08:21:07;100663.72;;;28.06;32.29
20889;BME280;10604;51.976;7.594;2022-09-25T08:23:33;100655.75;;;28.73;31.34
20889;BME280;10604;51.976;7.594;2022-09-25T08:25:59;100657.97;;;28.35;32.48
20889;BME280;10604;51.976;7.594;2022-09-25T08:28:26;100662.16;;;29.06;31.45
20889;BME280;10604;51.976;7.594;2022-09-25T08:30:52;100654.22;;;29.45;31.07
20889;BME280;10604;51.976;7.594;2022-09-25T08:33:18;100656.25;;;29.75;30.94
20889;BME280;10604;51.976;7.594;2022-09-25T08:35:53;100657.28;;;29.50;30.93
20889;BME280;10604;51.976;7.594;2022-09-25T08:38:19;100658.91;;;30.16;29.77
20889;BME280;10604;51.976;7.594;2022-09-25T08:41:05;100662.25;;;30.34;30.14
20889;BME280;10604;51.976;7.594;2022-09-25T08:43:38;100657.22;;;30.15;30.00
20889;BME280;10604;51.976;7.594;2022-09-25T08:46:14;100664.03;;;29.86;30.15
20889;BME280;10604;51.976;7.594;2022-09-25T08:49:00;100669.38;;;30.35;29.84
20889;BME280;10604;51.976;7.594;2022-09-25T08:51:31;100660.75;;;30.70;29.29
20889;BME280;10604;51.976;7.594;2022-09-25T08:53:58;100663.66;;;30.22;29.58
20889;BME280;10604;51.976;7.594;2022-09-25T08:56:26;100666.69;;;30.27;29.36
20889;BME280;10604;51.976;7.594;2022-09-25T09:05:02;100669.53;;;30.89;28.96
20889;BME280;10604;51.976;7.594;2022-09-25T09:07:35;100666.78;;;31.42;28.42
20889;BME280;10604;51.976;7.594;2022-09-25T09:10:16;100666.63;;;31.67;27.99
20889;BME280;10604;51.976;7.594;2022-09-25T09:12:51;100671.47;;;30.33;28.99
20889;BME280;10604;51.976;7.594;2022-09-25T09:17:49;100670.84;;;30.93;28.27
20889;BME280;10604;51.976;7.594;2022-09-25T09:20:17;100661.88;;;32.13;27.03
20889;BME280;10604;51.976;7.594;2022-09-25T09:22:50;100664.16;;;32.24;27.62
20889;BME280;10604;51.976;7.594;2022-09-25T09:25:27;100660.72;;;33.17;26.04
20889;BME280;10604;51.976;7.594;2022-09-25T09:28:16;100664.88;;;32.47;26.73
20889;BME280;10604;51.976;7.594;2022-09-25T09:31:01;100668.25;;;32.93;26.04
20889;BME280;10604;51.976;7.594;2022-09-25T09:36:39;100670.81;;;34.77;24.34
20889;BME280;10604;51.976;7.594;2022-09-25T09:39:19;100665.91;;;35.26;23.38
20889;BME280;10604;51.976;7.594;2022-09-25T09:54:40;100664.09;;;32.17;27.23
20889;BME280;10604;51.976;7.594;2022-09-25T09:57:29;100665.84;;;31.04;28.04
20889;BME280;10604;51.976;7.594;2022-09-25T10:00:06;100657.84;;;32.38;26.88
20889;BME280;10604;51.976;7.594;2022-09-25T10:02:36;100661.66;;;34.22;25.26
20889;BME280;10604;51.976;7.594;2022-09-25T10:05:08;100665.22;;;34.64;24.15
20889;BME280;10604;51.976;7.594;2022-09-25T10:07:35;100650.81;;;34.48;24.46
20889;BME280;10604;51.976;7.594;2022-09-25T10:10:12;100652.81;;;35.42;22.82
20889;BME280;10604;51.976;7.594;2022-09-25T10:12:38;100656.50;;;34.12;24.07
20889;BME280;10604;51.976;7.594;2022-09-25T10:15:38;100653.09;;;33.55;24.31
20889;BME280;10604;51.976;7.594;2022-09-25T10:18:02;100647.72;;;33.68;24.42
20889;BME280;10604;51.976;7.594;2022-09-25T10:20:49;100652.13;;;33.90;24.31
20889;BME280;10604;51.976;7.594;2022-09-25T10:25:54;100638.78;;;31.86;26.55
20889;BME280;10604;51.976;7.594;2022-09-25T10:30:56;100636.22;;;31.70;27.00
20889;BME280;10604;51.976;7.594;2022-09-25T10:33:28;100642.88;;;33.42;25.32
20889;BME280;10604;51.976;7.594;2022-09-25T10:35:54;100646.78;;;34.79;23.58
20889;BME280;10604;51.976;7.594;2022-09-25T10:40:56;100646.03;;;36.03;22.29
20889;BME280;10604;51.976;7.594;2022-09-25T10:43:23;100641.34;;;37.26;20.29
20889;BME280;10604;51.976;7.594;2022-09-25T10:45:50;100630.34;;;37.26;20.54
20889;BME280;10604;51.976;7.594;2022-09-25T10:48:33;100632.34;;;36.61;21.67
20889;BME280;10604;51.976;7.594;2022-09-25T10:51:17;100636.91;;;34.43;23.45
20889;BME280;10604;51.976;7.594;2022-09-25T10:53:46;100630.91;;;33.22;24.22
20889;BME280;10604;51.976;7.594;2022-09-25T10:56:18;100634.28;;;33.45;23.67
20889;BME280;10604;51.976;7.594;2022-09-25T10:58:54;100634.16;;;33.53;24.67
20889;BME280;10604;51.976;7.594;2022-09-25T11:01:28;100637.13;;;33.58;24.43
20889;BME280;10604;51.976;7.594;2022-09-25T11:03:55;100641.25;;;32.69;24.66
20889;BME280;10604;51.976;7.594;2022-09-25T11:06:26;100640.09;;;35.01;23.12
20889;BME280;10604;51.976;7.594;2022-09-25T11:09:11;100636.88;;;36.94;21.42
20889;BME280;10604;51.976;7.594;2022-09-25T11:11:38;100645.31;;;36.99;20.76
20889;BME280;10604;51.976;7.594;2022-09-25T11:14:06;100642.38;;;35.04;21.61
20889;BME280;10604;51.976;7.594;2022-09-25T11:19:13;100637.88;;;32.38;24.91
20889;BME280;10604;51.976;7.594;2022-09-25T11:21:48;100629.28;;;32.41;24.52
20889;BME280;10604;51.976;7.594;2022-09-25T11:26:54;100630.09;;;33.49;23.95
20889;BME280;10604;51.976;7.594;2022-09-25T11:38:04;100611.84;;;35.93;21.35
20889;BME280;10604;51.976;7.594;2022-09-25T11:40:55;100607.00;;;37.53;20.16
20889;BME280;10604;51.976;7.594;2022-09-25T11:49:31;100616.22;;;34.88;20.68
20889;BME280;10604;51.976;7.594;2022-09-25T12:00:33;100596.56;;;38.23;18.90
20889;BME280;10604;51.976;7.594;2022-09-25T12:11:12;100588.22;;;35.59;18.72
20889;BME280;10604;51.976;7.594;2022-09-25T12:24:40;100573.16;;;36.59;18.37
20889;BME280;10604;51.976;7.594;2022-09-25T12:30:16;100563.50;;;36.43;18.86
20889;BME280;10604;51.976;7.594;2022-09-25T12:40:47;100548.78;;;37.75;18.48
20889;BME280;10604;51.976;7.594;2022-09-25T12:45:51;100544.75;;;35.29;17.87
20889;BME280;10604;51.976;7.594;2022-09-25T12:51:01;100539.22;;;35.56;18.16
20889;BME280;10604;51.976;7.594;2022-09-25T12:53:43;100537.94;;;35.78;18.77
20889;BME280;10604;51.976;7.594;2022-09-25T12:56:21;100543.78;;;36.01;18.75
20889;BME280;10604;51.976;7.594;2022-09-25T12:59:08;100543.78;;;37.40;17.20
20889;BME280;10604;51.976;7.594;2022-09-25T13:02:24;100540.53;;;37.25;17.76
20889;BME280;10604;51.976;7.594;2022-09-25T13:08:02;100533.19;;;39.48;16.06
20889;BME280;10604;51.976;7.594;2022-09-25T13:13:11;100529.84;;;39.46;16.19
20889;BME280;10604;51.976;7.594;2022-09-25T13:15:44;100521.91;;;39.61;16.11
20889;BME280;10604;51.976;7.594;2022-09-25T13:18:19;100525.06;;;37.49;17.26
20889;BME280;10604;51.976;7.594;2022-09-25T13:20:54;100524.16;;;35.91;18.62
20889;BME280;10604;51.976;7.594;2022-09-25T13:25:54;100517.88;;;34.92;19.73
20889;BME280;10604;51.976;7.594;2022-09-25T13:28:29;100519.63;;;34.32;19.59
20889;BME280;10604;51.976;7.594;2022-09-25T13:31:12;100516.00;;;34.86;19.60
20889;BME280;10604;51.976;7.594;2022-09-25T13:33:52;100520.78;;;37.35;18.44
20889;BME280;10604;51.976;7.594;2022-09-25T13:41:55;100504.47;;;36.01;20.00
20889;BME280;10604;51.976;7.594;2022-09-25T14:00:26;100494.44;;;35.55;20.41
20889;BME280;10604;51.976;7.594;2022-09-25T14:02:55;100478.63;;;36.22;19.61
20889;BME280;10604;51.976;7.594;2022-09-25T14:05:26;100478.97;;;36.32;18.98
20889;BME280;10604;51.976;7.594;2022-09-25T14:08:08;100483.09;;;34.86;20.23
20889;BME280;10604;51.976;7.594;2022-09-25T14:10:36;100492.78;;;35.08;19.97
20889;BME280;10604;51.976;7.594;2022-09-25T14:13:11;100486.09;;;35.88;19.58
20889;BME280;10604;51.976;7.594;2022-09-25T14:15:38;100491.50;;;35.50;19.36
20889;BME280;10604;51.976;7.594;2022-09-25T14:18:17;100490.56;;;35.89;19.20
20889;BME280;10604;51.976;7.594;2022-09-25T14:20:47;100479.66;;;34.57;19.98
20889;BME280;10604;51.976;7.594;2022-09-25T14:23:23;100482.19;;;34.52;20.08
20889;BME280;10604;51.976;7.594;2022-09-25T14:25:56;100473.38;;;35.29;19.94
20889;BME280;10604;51.976;7.594;2022-09-25T14:28:25;100476.56;;;34.19;20.38
20889;BME280;10604;51.976;7.594;2022-09-25T14:31:10;100472.75;;;34.88;20.42
20889;BME280;10604;51.976;7.594;2022-09-25T14:47:59;100461.34;;;34.97;19.15
20889;BME280;10604;51.976;7.594;2022-09-25T14:50:31;100472.47;;;36.20;18.62
20889;BME280;10604;51.976;7.594;2022-09-25T14:53:01;100459.72;;;35.87;19.18
20889;BME280;10604;51.976;7.594;2022-09-25T14:55:34;100463.06;;;35.89;18.69
20889;BME280;10604;51.976;7.594;2022-09-25T14:58:01;100470.75;;;35.61;18.48
20889;BME280;10604;51.976;7.594;2022-09-25T15:00:29;100470.19;;;36.03;18.67
20889;BME280;10604;51.976;7.594;2022-09-25T15:02:55;100469.72;;;36.20;19.53
20889;BME280;10604;51.976;7.594;2022-09-25T15:07:49;100456.72;;;36.02;18.12
20889;BME280;10604;51.976;7.594;2022-09-25T15:15:40;100470.44;;;34.11;20.84
20889;BME280;10604;51.976;7.594;2022-09-25T15:18:27;100463.13;;;33.15;21.96
20889;BME280;10604;51.976;7.594;2022-09-25T15:20:52;100460.97;;;33.31;22.08
20889;BME280;10604;51.976;7.594;2022-09-25T15:23:19;100454.59;;;32.96;23.17
20889;BME280;10604;51.976;7.594;2022-09-25T15:25:51;100456.72;;;33.63;22.70
20889;BME280;10604;51.976;7.594;2022-09-25T15:28:19;100444.44;;;32.90;23.83
20889;BME280;10604;51.976;7.594;2022-09-25T15:30:58;100448.75;;;32.57;24.15
20889;BME280;10604;51.976;7.594;2022-09-25T15:33:32;100449.78;;;32.56;24.45
20889;BME280;10604;51.976;7.594;2022-09-25T15:36:00;100442.09;;;32.87;23.94
20889;BME280;10604;51.976;7.594;2022-09-25T15:38:35;100436.75;;;32.15;24.52
20889;BME280;10604;51.976;7.594;2022-09-25T15:41:02;100443.63;;;32.11;25.04
20889;BME280;10604;51.976;7.594;2022-09-25T15:43:30;100445.31;;;32.97;23.58
20889;BME280;10604;51.976;7.594;2022-09-25T15:46:27;100449.06;;;33.18;23.62
20889;BME280;10604;51.976;7.594;2022-09-25T15:48:57;100441.91;;;33.17;23.63
20889;BME280;10604;51.976;7.594;2022-09-25T15:51:25;100444.00;;;33.15;23.24